Time;durP1;ratioP1;P1;durP2;ratioP2;P2;SDS_P1;SDS_P2;PMS_P1;PMS_P2;Temp;Humidity;BMP_temperature;BMP_pressure;BME280_temperature;BME280_humidity;BME280_pressure;Samples;Min_cycle;Max_cycle;Signal;HPM_P1;HPM_P2
2023/07/01 00:00:59;;;;;;;3.77;2.20;;;24.00;77.90;;;;;;5018500;28;20458;-78
2023/07/01 00:03:29;;;;;;;3.60;2.00;;;24.00;77.90;;;;;;5021917;28;20807;-78
2023/07/01 00:05:57;;;;;;;5.17;2.47;;;24.00;77.90;;;;;;5019474;28;20463;-79
2023/07/01 00:08:24;;;;;;;2.87;2.20;;;24.00;77.90;;;;;;5021904;28;20454;-78
2023/07/01 00:10:52;;;;;;;3.27;2.53;;;24.00;78.00;;;;;;5023998;28;20831;-78
2023/07/01 00:13:19;;;;;;;3.40;2.43;;;24.00;78.00;;;;;;5021039;28;21038;-78
2023/07/01 00:15:46;;;;;;;3.20;2.70;;;24.00;78.00;;;;;;5019068;28;20458;-79
2023/07/01 00:18:13;;;;;;;4.13;2.23;;;24.00;78.00;;;;;;5025749;28;20498;-78
2023/07/01 00:20:39;;;;;;;2.63;2.43;;;24.00;78.10;;;;;;5021794;28;20474;-78
2023/07/01 00:23:06;;;;;;;3.00;2.53;;;24.00;78.10;;;;;;5019614;28;20505;-78
2023/07/01 00:25:33;;;;;;;2.93;2.10;;;24.00;78.10;;;;;;5018150;28;20458;-78
2023/07/01 00:28:01;;;;;;;2.80;1.97;;;24.00;78.10;;;;;;5019870;28;20456;-78
2023/07/01 00:30:28;;;;;;;2.70;2.23;;;24.00;78.20;;;;;;5015019;28;21550;-78
2023/07/01 00:32:55;;;;;;;2.47;1.80;;;24.00;78.20;;;;;;5022553;28;20458;-78
2023/07/01 00:35:22;;;;;;;2.63;2.37;;;24.00;78.20;;;;;;5016440;28;20815;-77
2023/07/01 00:37:49;;;;;;;4.37;2.73;;;24.00;78.30;;;;;;5025238;28;20867;-78
2023/07/01 00:40:15;;;;;;;4.23;2.63;;;24.00;78.20;;;;;;5026042;28;20482;-78
2023/07/01 00:42:43;;;;;;;2.60;2.20;;;24.00;78.20;;;;;;5018185;28;21024;-78
2023/07/01 00:45:11;;;;;;;3.40;2.13;;;24.00;78.30;;;;;;5017452;28;20458;-77
2023/07/01 00:47:40;;;;;;;3.60;2.07;;;24.00;78.40;;;;;;5020684;28;20830;-78
2023/07/01 00:50:10;;;;;;;3.40;2.43;;;24.00;78.40;;;;;;5020547;28;20458;-77
2023/07/01 00:52:37;;;;;;;2.77;2.40;;;24.00;78.40;;;;;;5022835;28;20470;-78
2023/07/01 00:55:04;;;;;;;2.63;2.10;;;24.00;78.40;;;;;;5026348;28;20841;-78
2023/07/01 00:57:32;;;;;;;3.70;2.93;;;24.00;78.40;;;;;;5022182;28;20497;-78
2023/07/01 00:59:59;;;;;;;2.63;2.07;;;24.00;78.50;;;;;;5021996;28;20470;-78
2023/07/01 01:02:31;;;;;;;2.60;1.87;;;24.00;78.50;;;;;;5021750;28;20462;-78
2023/07/01 01:05:10;;;;;;;3.20;2.47;;;24.00;78.50;;;;;;5016496;28;20464;-78
2023/07/01 01:07:45;;;;;;;5.47;2.33;;;24.00;78.50;;;;;;5019959;28;20535;-78
2023/07/01 01:10:15;;;;;;;2.70;1.83;;;24.00;79.20;;;;;;5022687;28;20463;-78
2023/07/01 01:12:44;;;;;;;3.83;2.97;;;24.00;78.60;;;;;;5022418;28;20489;-79
2023/07/01 01:15:12;;;;;;;2.70;1.70;;;24.00;78.60;;;;;;5019714;28;20469;-78
2023/07/01 01:17:42;;;;;;;2.67;2.40;;;24.00;78.60;;;;;;5026613;28;20493;-78
2023/07/01 01:20:16;;;;;;;2.77;1.90;;;24.00;78.60;;;;;;5028579;28;20500;-78
2023/07/01 01:22:47;;;;;;;2.70;2.20;;;24.00;78.70;;;;;;5026229;28;20458;-78
2023/07/01 01:25:20;;;;;;;2.27;1.93;;;24.00;78.70;;;;;;5030405;28;20831;-78
2023/07/01 01:27:48;;;;;;;3.73;2.33;;;23.90;78.60;;;;;;5020107;28;20873;-78
2023/07/01 01:30:16;;;;;;;3.47;2.07;;;23.90;78.60;;;;;;5016468;28;20831;-78
2023/07/01 01:32:42;;;;;;;3.90;2.33;;;23.90;78.60;;;;;;5016908;28;20450;-78
2023/07/01 01:35:09;;;;;;;2.37;1.93;;;24.00;78.70;;;;;;5020555;28;20999;-78
2023/07/01 01:37:44;;;;;;;2.77;2.30;;;23.90;78.70;;;;;;5021585;28;20450;-78
2023/07/01 01:40:15;;;;;;;2.00;1.80;;;23.90;78.60;;;;;;5022066;28;20481;-78
2023/07/01 01:42:45;;;;;;;3.37;2.30;;;23.90;78.70;;;;;;5022363;28;20554;-78
2023/07/01 01:45:15;;;;;;;3.27;2.30;;;23.90;78.70;;;;;;5020822;28;20568;-79
2023/07/01 01:47:42;;;;;;;3.67;2.37;;;23.50;78.30;;;;;;5020190;28;20474;-78
2023/07/01 01:50:12;;;;;;;2.20;1.80;;;24.00;78.90;;;;;;5015794;28;20459;-78
2023/07/01 01:52:41;;;;;;;2.77;2.20;;;23.90;78.80;;;;;;5018919;28;20458;-78
2023/07/01 01:55:10;;;;;;;2.67;2.00;;;23.90;78.80;;;;;;5018242;28;21230;-78
2023/07/01 01:57:37;;;;;;;1.93;1.73;;;23.90;78.80;;;;;;5021745;28;20501;-78
2023/07/01 02:00:08;;;;;;;1.90;1.43;;;23.90;78.90;;;;;;5019990;28;20976;-79
2023/07/01 02:02:36;;;;;;;3.77;2.27;;;24.00;78.90;;;;;;5016330;28;20984;-78
2023/07/01 02:05:03;;;;;;;2.57;2.10;;;23.90;78.90;;;;;;5017887;28;20465;-78
2023/07/01 02:07:30;;;;;;;2.47;2.27;;;23.90;78.90;;;;;;5018338;28;20459;-78
2023/07/01 02:09:56;;;;;;;1.97;1.70;;;23.90;78.90;;;;;;5026785;28;20490;-79
2023/07/01 02:12:25;;;;;;;2.10;1.67;;;23.90;79.00;;;;;;5025913;28;20467;-78
2023/07/01 02:14:52;;;;;;;2.17;1.80;;;23.90;79.00;;;;;;5026417;28;20480;-79
2023/07/01 02:17:19;;;;;;;3.03;2.33;;;23.90;78.90;;;;;;5028877;28;20477;-79
2023/07/01 02:19:47;;;;;;;2.10;1.80;;;23.90;78.90;;;;;;5025836;28;21088;-78
2023/07/01 02:22:14;;;;;;;3.30;2.43;;;23.90;78.90;;;;;;5025591;28;21293;-78
2023/07/01 02:24:41;;;;;;;2.47;2.23;;;23.90;79.00;;;;;;5020809;28;20459;-78
2023/07/01 02:27:08;;;;;;;2.10;1.90;;;23.90;79.00;;;;;;5022402;28;20832;-78
2023/07/01 02:29:35;;;;;;;2.67;2.20;;;23.90;79.00;;;;;;5024964;28;21014;-78
2023/07/01 02:32:02;;;;;;;3.10;1.90;;;23.90;79.00;;;;;;5021194;28;21637;-78
2023/07/01 02:34:29;;;;;;;3.20;1.80;;;23.90;79.00;;;;;;5021564;28;20465;-78
2023/07/01 02:36:57;;;;;;;2.30;2.10;;;23.90;79.00;;;;;;5022186;28;20465;-77
2023/07/01 02:39:24;;;;;;;2.70;2.00;;;23.90;79.00;;;;;;5031865;28;20573;-78
2023/07/01 02:41:51;;;;;;;2.17;1.97;;;23.90;79.10;;;;;;5032408;28;20454;-77
2023/07/01 02:44:18;;;;;;;1.90;1.73;;;23.90;79.10;;;;;;5028361;28;20473;-77
2023/07/01 02:46:47;;;;;;;3.00;1.80;;;23.90;79.10;;;;;;5029718;28;20689;-79
2023/07/01 02:49:13;;;;;;;2.20;2.00;;;23.90;79.10;;;;;;5032175;28;20453;-79
2023/07/01 02:51:41;;;;;;;2.00;1.80;;;23.90;79.10;;;;;;5025827;28;20465;-79
2023/07/01 02:54:09;;;;;;;2.47;2.27;;;23.90;79.10;;;;;;5021414;28;20987;-80
2023/07/01 02:56:36;;;;;;;2.13;1.97;;;23.90;79.10;;;;;;5020762;28;20544;-79
2023/07/01 02:59:03;;;;;;;1.93;1.70;;;23.90;80.00;;;;;;5023252;28;20604;-79
2023/07/01 03:01:30;;;;;;;3.60;2.13;;;24.00;79.20;;;;;;5006695;28;20459;-79
2023/07/01 03:03:57;;;;;;;3.53;2.53;;;23.90;79.20;;;;;;5022087;28;21235;-79
2023/07/01 03:06:25;;;;;;;2.10;1.90;;;23.90;79.10;;;;;;5030257;28;20469;-79
2023/07/01 03:08:52;;;;;;;2.13;1.93;;;23.90;79.30;;;;;;5025057;28;20470;-79
2023/07/01 03:11:20;;;;;;;1.90;1.70;;;23.90;79.20;;;;;;5023917;28;20845;-79
2023/07/01 03:13:47;;;;;;;2.77;1.97;;;23.90;79.20;;;;;;5023938;28;20889;-79
2023/07/01 03:16:13;;;;;;;2.03;1.30;;;23.90;79.20;;;;;;5017177;28;20467;-79
2023/07/01 03:18:40;;;;;;;3.00;2.30;;;23.90;79.20;;;;;;5020241;28;20474;-79
2023/07/01 03:21:07;;;;;;;3.17;2.43;;;23.90;79.20;;;;;;5024068;28;20458;-78
2023/07/01 03:23:34;;;;;;;2.30;1.80;;;23.90;79.20;;;;;;5024089;28;20462;-79
2023/07/01 03:26:01;;;;;;;2.33;2.10;;;23.90;79.20;;;;;;5022470;28;21145;-80
2023/07/01 03:28:29;;;;;;;2.60;2.10;;;23.90;79.20;;;;;;5020555;28;20937;-80
2023/07/01 03:30:56;;;;;;;2.27;1.70;;;23.90;79.30;;;;;;5022291;28;20471;-80
2023/07/01 03:33:24;;;;;;;2.17;1.90;;;23.90;79.30;;;;;;5021406;28;20458;-80
2023/07/01 03:35:54;;;;;;;2.10;1.80;;;23.90;79.30;;;;;;5017900;28;20477;-79
2023/07/01 03:38:20;;;;;;;1.77;1.57;;;23.90;79.30;;;;;;5028256;28;20459;-80
2023/07/01 03:40:50;;;;;;;3.07;2.00;;;23.90;79.30;;;;;;5030753;28;20474;-80
2023/07/01 03:43:17;;;;;;;2.37;2.17;;;23.90;79.30;;;;;;5028741;28;20498;-80
2023/07/01 03:45:45;;;;;;;2.00;1.70;;;23.90;79.30;;;;;;5025627;28;20950;-80
2023/07/01 03:48:12;;;;;;;2.00;1.60;;;23.90;79.40;;;;;;5030034;28;20503;-79
2023/07/01 03:50:39;;;;;;;1.90;1.70;;;23.90;79.30;;;;;;5030598;28;20458;-79
2023/07/01 03:53:05;;;;;;;2.00;1.80;;;23.90;79.40;;;;;;5033056;28;20454;-79
2023/07/01 03:55:32;;;;;;;2.20;1.93;;;23.90;79.40;;;;;;5028544;28;20471;-79
2023/07/01 03:57:59;;;;;;;1.87;1.67;;;23.90;79.40;;;;;;5029602;28;20485;-80
2023/07/01 04:00:26;;;;;;;2.43;1.90;;;23.90;79.50;;;;;;5028273;28;20493;-80
2023/07/01 04:02:54;;;;;;;2.03;1.80;;;23.90;79.40;;;;;;5031927;28;20461;-80
2023/07/01 04:05:21;;;;;;;2.20;1.73;;;23.90;79.40;;;;;;5029895;28;20557;-80
2023/07/01 04:07:49;;;;;;;2.07;1.97;;;23.90;79.50;;;;;;5027557;28;20477;-80
2023/07/01 04:10:16;;;;;;;3.03;2.10;;;23.90;79.50;;;;;;5027327;28;20469;-80
2023/07/01 04:12:43;;;;;;;1.70;1.60;;;23.90;79.50;;;;;;5026500;28;20609;-80
2023/07/01 04:15:10;;;;;;;1.63;1.53;;;23.90;79.50;;;;;;5022470;28;20462;-80
2023/07/01 04:17:41;;;;;;;1.80;1.33;;;23.90;79.50;;;;;;5023692;28;20770;-80
2023/07/01 04:20:11;;;;;;;2.93;2.00;;;23.80;79.40;;;;;;5022325;28;20565;-79
2023/07/01 04:22:38;;;;;;;2.40;1.60;;;23.80;79.50;;;;;;5023740;28;20449;-80
2023/07/01 04:25:06;;;;;;;2.33;1.70;;;23.90;79.60;;;;;;5025244;28;20629;-80
2023/07/01 04:27:33;;;;;;;2.00;1.43;;;23.90;79.60;;;;;;5026840;28;20461;-80
2023/07/01 04:30:00;;;;;;;2.00;1.90;;;23.90;79.60;;;;;;5024347;28;20454;-81
2023/07/01 04:32:28;;;;;;;3.70;1.87;;;23.80;79.50;;;;;;5017641;28;23696;-79
2023/07/01 04:34:55;;;;;;;3.00;1.77;;;23.90;79.60;;;;;;5023068;28;20462;-80
2023/07/01 04:37:23;;;;;;;2.03;1.50;;;23.80;79.50;;;;;;5026300;28;20926;-79
2023/07/01 04:39:50;;;;;;;2.20;1.73;;;23.80;79.50;;;;;;5033269;28;20485;-79
2023/07/01 04:42:18;;;;;;;2.80;1.80;;;23.80;79.50;;;;;;5020247;28;20837;-79
2023/07/01 04:44:44;;;;;;;1.97;1.50;;;23.90;79.60;;;;;;5022154;28;20718;-80
2023/07/01 04:47:13;;;;;;;1.70;1.43;;;23.80;79.60;;;;;;5021693;28;20462;-80
2023/07/01 04:49:39;;;;;;;2.17;1.80;;;23.80;79.60;;;;;;5024338;28;20796;-80
2023/07/01 04:52:07;;;;;;;2.63;1.77;;;23.80;79.60;;;;;;5021509;28;21489;-80
2023/07/01 04:54:35;;;;;;;1.50;1.40;;;23.90;79.70;;;;;;5022714;28;20529;-80
2023/07/01 04:57:01;;;;;;;1.77;1.40;;;23.80;79.60;;;;;;5021018;28;21072;-79
2023/07/01 04:59:28;;;;;;;2.10;1.57;;;23.80;79.60;;;;;;5022407;28;20967;-80
2023/07/01 05:01:55;;;;;;;1.90;1.60;;;23.80;79.60;;;;;;5023560;28;20469;-80
2023/07/01 05:04:22;;;;;;;1.80;1.57;;;23.80;79.60;;;;;;5024292;28;20476;-80
2023/07/01 05:06:48;;;;;;;1.70;1.43;;;23.80;79.70;;;;;;5029804;28;20465;-80
2023/07/01 05:09:15;;;;;;;1.80;1.70;;;23.80;79.70;;;;;;5030348;28;21189;-80
2023/07/01 05:11:44;;;;;;;2.13;1.90;;;23.80;79.70;;;;;;5024836;28;20817;-81
2023/07/01 05:14:11;;;;;;;3.13;1.90;;;23.80;79.70;;;;;;5016877;28;21074;-80
2023/07/01 05:16:38;;;;;;;2.07;1.80;;;23.80;79.70;;;;;;5017424;28;20893;-80
2023/07/01 05:19:05;;;;;;;2.57;1.50;;;23.80;80.50;;;;;;5017493;28;20489;-81
2023/07/01 05:21:33;;;;;;;2.77;1.77;;;23.80;79.70;;;;;;5019075;28;20466;-80
2023/07/01 05:24:00;;;;;;;2.80;1.93;;;23.80;79.70;;;;;;5017924;28;20461;-80
2023/07/01 05:26:27;;;;;;;1.90;1.67;;;23.80;79.70;;;;;;5021918;28;20473;-79
2023/07/01 05:28:56;;;;;;;2.10;2.00;;;23.80;79.70;;;;;;5020801;28;20468;-80
2023/07/01 05:31:23;;;;;;;2.30;1.97;;;23.70;79.60;;;;;;5019555;28;20462;-80
2023/07/01 05:33:50;;;;;;;3.33;1.60;;;23.80;79.80;;;;;;5020240;28;20989;-80
2023/07/01 05:36:17;;;;;;;2.37;1.80;;;23.90;80.00;;;;;;5018258;28;20455;-81
2023/07/01 05:38:44;;;;;;;2.03;1.73;;;23.80;79.80;;;;;;5023279;28;20454;-80
2023/07/01 05:41:10;;;;;;;1.90;1.60;;;23.80;79.80;;;;;;5025611;28;21502;-80
2023/07/01 05:43:37;;;;;;;1.73;1.43;;;23.80;79.80;;;;;;5025426;28;20481;-80
2023/07/01 05:46:05;;;;;;;1.70;1.60;;;23.80;79.80;;;;;;5020343;28;20462;-80
2023/07/01 05:48:32;;;;;;;1.70;1.57;;;23.80;79.80;;;;;;5021832;28;20472;-80
2023/07/01 05:50:58;;;;;;;2.70;1.90;;;23.80;79.80;;;;;;5026962;28;21367;-80
2023/07/01 05:53:25;;;;;;;2.60;2.20;;;23.80;79.80;;;;;;5021441;28;20454;-80
2023/07/01 05:55:52;;;;;;;2.23;1.93;;;23.80;79.80;;;;;;5018635;28;20615;-79
2023/07/01 05:58:19;;;;;;;1.73;1.63;;;23.80;79.90;;;;;;5018447;28;20561;-79
2023/07/01 06:00:46;;;;;;;1.90;1.60;;;23.80;79.90;;;;;;5017788;28;20486;-80
2023/07/01 06:03:17;;;;;;;2.17;1.70;;;23.80;79.90;;;;;;5026472;28;20490;-80
2023/07/01 06:05:43;;;;;;;2.47;1.90;;;23.80;80.00;;;;;;5013500;28;20496;-79
2023/07/01 06:08:10;;;;;;;2.03;1.57;;;23.80;79.90;;;;;;5026756;28;20957;-79
2023/07/01 06:10:38;;;;;;;3.03;1.77;;;23.80;79.90;;;;;;5028279;28;20461;-79
2023/07/01 06:13:05;;;;;;;1.87;1.50;;;23.80;80.00;;;;;;5025755;28;20501;-79
2023/07/01 06:15:31;;;;;;;1.77;1.50;;;23.80;79.90;;;;;;5018257;28;20465;-79
2023/07/01 06:17:58;;;;;;;1.80;1.70;;;23.80;80.00;;;;;;5018603;28;20458;-78
2023/07/01 06:20:26;;;;;;;1.63;1.37;;;23.80;80.00;;;;;;5019533;28;20478;-78
2023/07/01 06:22:53;;;;;;;1.57;1.47;;;23.80;80.00;;;;;;5026163;28;20463;-78
2023/07/01 06:25:20;;;;;;;2.10;1.47;;;23.80;80.00;;;;;;5021511;28;20463;-79
2023/07/01 06:27:47;;;;;;;2.40;1.63;;;23.80;80.00;;;;;;5022939;28;20457;-79
2023/07/01 06:30:14;;;;;;;1.43;1.30;;;23.80;80.00;;;;;;5020450;28;20873;-78
2023/07/01 06:32:40;;;;;;;1.50;1.40;;;23.80;80.00;;;;;;5025387;28;20465;-78
2023/07/01 06:35:08;;;;;;;1.67;1.57;;;23.80;80.10;;;;;;5019063;28;20464;-78
2023/07/01 06:37:36;;;;;;;1.97;1.60;;;23.80;80.10;;;;;;5022046;28;21053;-79
2023/07/01 06:40:03;;;;;;;2.00;1.77;;;23.80;80.10;;;;;;5026219;28;20482;-79
2023/07/01 06:42:30;;;;;;;1.87;1.70;;;23.80;80.10;;;;;;5025947;28;20470;-79
2023/07/01 06:44:57;;;;;;;1.83;1.60;;;23.80;80.10;;;;;;5026261;28;20463;-79
2023/07/01 06:47:24;;;;;;;1.60;1.50;;;23.80;80.30;;;;;;5026013;28;20462;-79
2023/07/01 06:49:51;;;;;;;1.63;1.53;;;23.80;80.10;;;;;;5025075;28;20811;-79
2023/07/01 06:52:18;;;;;;;1.77;1.40;;;23.80;80.10;;;;;;5027216;28;20804;-79
2023/07/01 06:54:46;;;;;;;2.20;1.73;;;23.80;80.10;;;;;;5025533;28;21184;-78
2023/07/01 06:57:12;;;;;;;2.03;1.57;;;23.80;80.10;;;;;;5026360;28;20489;-79
2023/07/01 06:59:39;;;;;;;1.97;1.37;;;23.80;80.20;;;;;;5025771;28;20485;-78
2023/07/01 07:02:07;;;;;;;2.13;1.63;;;23.70;80.10;;;;;;5024079;28;20463;-78
2023/07/01 07:04:33;;;;;;;1.47;1.33;;;23.80;80.20;;;;;;5025816;28;20981;-79
2023/07/01 07:07:05;;;;;;;2.00;1.67;;;23.70;80.10;;;;;;5026984;28;20454;-79
2023/07/01 07:09:31;;;;;;;1.63;1.40;;;24.00;80.50;;;;;;5022778;28;20451;-80
2023/07/01 07:12:03;;;;;;;2.13;1.60;;;23.80;80.20;;;;;;5027179;28;20459;-80
2023/07/01 07:14:33;;;;;;;2.00;1.60;;;23.80;80.20;;;;;;5022737;28;21009;-80
2023/07/01 07:16:59;;;;;;;2.40;1.87;;;23.80;80.20;;;;;;5023103;28;20462;-81
2023/07/01 07:19:26;;;;;;;3.17;1.87;;;23.80;80.20;;;;;;5032427;28;20472;-80
2023/07/01 07:21:56;;;;;;;4.50;2.20;;;23.70;80.20;;;;;;5034499;28;20477;-81
2023/07/01 07:24:23;;;;;;;3.10;2.37;;;23.70;80.20;;;;;;5029967;28;20465;-81
2023/07/01 07:27:01;;;;;;;4.63;2.73;;;23.70;80.20;;;;;;5022085;28;20486;-80
2023/07/01 07:29:29;;;;;;;3.07;2.03;;;23.70;80.40;;;;;;5019457;28;20469;-81
2023/07/01 07:31:57;;;;;;;6.20;2.37;;;23.60;80.80;;;;;;5020718;28;20450;-81
2023/07/01 07:34:25;;;;;;;6.93;2.47;;;23.60;80.80;;;;;;5022231;28;20491;-80
2023/07/01 07:36:52;;;;;;;2.53;2.23;;;23.60;80.70;;;;;;5021007;28;21433;-80
2023/07/01 07:39:19;;;;;;;4.10;2.17;;;23.60;80.80;;;;;;5022152;28;20831;-81
2023/07/01 07:41:46;;;;;;;2.10;1.80;;;23.60;81.00;;;;;;5018495;28;20479;-81
2023/07/01 07:44:13;;;;;;;1.93;1.73;;;23.60;81.00;;;;;;5021719;28;20474;-81
2023/07/01 07:46:42;;;;;;;2.30;2.00;;;23.70;81.30;;;;;;5020387;28;21276;-81
2023/07/01 07:49:09;;;;;;;6.13;2.20;;;23.70;81.30;;;;;;5020534;28;20462;-81
2023/07/01 07:51:35;;;;;;;2.70;2.10;;;23.60;81.20;;;;;;5017520;28;20462;-81
2023/07/01 07:54:02;;;;;;;3.70;2.40;;;23.60;81.40;;;;;;5022883;28;20470;-81
2023/07/01 07:56:29;;;;;;;2.90;2.27;;;23.70;81.50;;;;;;5022156;28;20470;-81
2023/07/01 07:58:55;;;;;;;3.70;2.40;;;23.60;81.50;;;;;;5018683;28;20469;-81
2023/07/01 08:01:22;;;;;;;2.17;1.90;;;23.70;81.60;;;;;;5017800;28;20489;-80
2023/07/01 08:03:50;;;;;;;3.80;2.00;;;23.60;81.70;;;;;;5019086;28;20462;-80
2023/07/01 08:06:18;;;;;;;2.13;1.93;;;23.60;81.60;;;;;;5020606;28;20465;-80
2023/07/01 08:08:45;;;;;;;2.53;2.30;;;23.70;81.90;;;;;;5017972;28;21111;-79
2023/07/01 08:11:12;;;;;;;2.43;2.00;;;23.70;81.80;;;;;;5029080;28;20889;-80
2023/07/01 08:13:39;;;;;;;3.00;2.03;;;23.60;81.70;;;;;;5024089;28;20458;-78
2023/07/01 08:16:06;;;;;;;4.63;1.77;;;23.70;81.80;;;;;;5023660;28;20501;-77
2023/07/01 08:18:33;;;;;;;5.00;2.47;;;23.70;81.90;;;;;;5020869;28;20469;-78
2023/07/01 08:21:01;;;;;;;1.93;1.60;;;23.60;81.60;;;;;;5024329;28;20488;-77
2023/07/01 08:23:28;;;;;;;2.53;1.70;;;23.60;81.80;;;;;;5021290;28;20466;-77
2023/07/01 08:25:55;;;;;;;2.40;2.20;;;23.70;81.90;;;;;;5023558;28;20466;-78
2023/07/01 08:28:21;;;;;;;2.87;1.80;;;23.70;81.90;;;;;;5022984;28;20458;-78
2023/07/01 08:30:48;;;;;;;3.73;2.50;;;23.60;81.70;;;;;;5015811;28;22542;-79
2023/07/01 08:33:15;;;;;;;2.33;1.90;;;23.70;81.90;;;;;;5017577;28;20952;-79
2023/07/01 08:35:42;;;;;;;3.10;1.90;;;23.60;81.70;;;;;;5024728;28;20869;-80
2023/07/01 08:38:10;;;;;;;2.77;2.10;;;23.70;81.90;;;;;;5019539;28;20469;-79
2023/07/01 08:40:37;;;;;;;4.20;1.90;;;23.60;81.80;;;;;;5027501;28;20482;-79
2023/07/01 08:43:06;;;;;;;3.80;3.37;;;23.70;81.90;;;;;;5028001;28;20469;-80
2023/07/01 08:45:32;;;;;;;2.93;2.10;;;23.70;81.90;;;;;;5030857;28;20454;-79
2023/07/01 08:48:00;;;;;;;6.83;2.10;;;23.60;81.80;;;;;;5034136;28;20453;-79
2023/07/01 08:50:32;;;;;;;2.33;1.77;;;23.70;81.90;;;;;;5035825;28;20543;-79
2023/07/01 08:53:04;;;;;;;3.33;2.37;;;23.70;81.90;;;;;;5025231;28;20462;-79
2023/07/01 08:55:33;;;;;;;4.43;2.33;;;23.60;81.70;;;;;;5021829;28;20450;-79
2023/07/01 08:58:00;;;;;;;3.43;2.00;;;23.60;81.60;;;;;;5022295;28;20493;-80
2023/07/01 09:00:29;;;;;;;3.97;2.10;;;23.70;81.90;;;;;;5024440;28;20517;-80
2023/07/01 09:02:57;;;;;;;2.23;2.03;;;23.70;81.90;;;;;;5025002;28;20454;-80
2023/07/01 09:05:23;;;;;;;2.07;1.80;;;23.60;81.80;;;;;;5022724;28;20462;-79
2023/07/01 09:07:51;;;;;;;2.30;2.03;;;23.60;81.80;;;;;;5023758;28;20463;-80
2023/07/01 09:10:18;;;;;;;3.13;1.93;;;23.70;81.90;;;;;;5023188;28;21044;-80
2023/07/01 09:12:46;;;;;;;3.30;2.10;;;23.60;81.80;;;;;;5023964;28;21049;-80
2023/07/01 09:15:12;;;;;;;2.27;1.90;;;23.70;82.00;;;;;;5027297;28;20468;-79
2023/07/01 09:17:41;;;;;;;2.33;2.13;;;23.70;82.00;;;;;;5030755;28;20459;-81
2023/07/01 09:20:10;;;;;;;3.30;2.00;;;23.60;81.80;;;;;;5029422;28;20838;-81
2023/07/01 09:22:39;;;;;;;2.80;2.40;;;23.60;81.90;;;;;;5028510;28;20465;-81
2023/07/01 09:25:07;;;;;;;2.13;1.90;;;23.60;82.10;;;;;;5022376;28;20982;-81
2023/07/01 09:27:46;;;;;;;2.90;2.27;;;23.70;82.20;;;;;;5024265;28;20465;-81
2023/07/01 09:30:28;;;;;;;2.00;1.80;;;23.70;82.40;;;;;;5024552;28;20466;-81
2023/07/01 09:33:11;;;;;;;2.03;1.70;;;23.70;82.40;;;;;;5027203;28;20463;-82
2023/07/01 09:35:42;;;;;;;3.23;1.73;;;23.70;82.60;;;;;;5024037;28;20466;-81
2023/07/01 09:38:09;;;;;;;2.30;1.63;;;23.60;82.70;;;;;;5026867;28;20439;-80
2023/07/01 09:40:36;;;;;;;2.70;2.27;;;23.70;82.90;;;;;;5020707;28;20483;-81
2023/07/01 09:43:03;;;;;;;2.80;1.70;;;23.60;82.90;;;;;;5022823;28;20478;-81
2023/07/01 09:45:31;;;;;;;4.33;2.30;;;23.70;83.20;;;;;;5022184;28;20469;-82
2023/07/01 09:47:58;;;;;;;3.47;1.97;;;23.60;83.30;;;;;;5025917;28;20459;-81
2023/07/01 09:50:27;;;;;;;1.40;1.23;;;23.60;83.40;;;;;;5026078;28;20462;-81
2023/07/01 09:52:55;;;;;;;1.97;1.70;;;23.60;83.70;;;;;;5013621;28;20523;-82
2023/07/01 09:55:22;;;;;;;2.27;1.83;;;23.60;83.50;;;;;;5019812;28;20659;-81
2023/07/01 09:57:49;;;;;;;1.80;1.70;;;23.60;83.50;;;;;;5024749;28;20490;-82
2023/07/01 10:00:17;;;;;;;3.20;2.30;;;23.70;83.70;;;;;;5022981;28;21078;-81
2023/07/01 10:02:46;;;;;;;2.40;1.70;;;23.60;83.80;;;;;;5022536;28;20462;-82
2023/07/01 10:05:14;;;;;;;2.47;1.60;;;23.60;83.90;;;;;;5019441;28;20466;-81
2023/07/01 10:07:41;;;;;;;1.80;1.60;;;23.60;83.90;;;;;;5025134;28;20838;-83
2023/07/01 10:10:12;;;;;;;1.40;1.30;;;23.60;84.00;;;;;;5024215;28;21181;-82
2023/07/01 10:12:41;;;;;;;1.83;1.70;;;23.70;84.40;;;;;;5026118;28;20494;-82
2023/07/01 10:15:10;;;;;;;1.47;1.37;;;23.60;84.00;;;;;;5025453;28;20477;-83
2023/07/01 10:17:47;;;;;;;1.63;1.53;;;23.60;84.30;;;;;;5023772;28;20461;-81
2023/07/01 10:20:28;;;;;;;4.47;2.23;;;23.70;84.70;;;;;;5025497;28;20459;-80
2023/07/01 10:22:55;;;;;;;7.43;1.70;;;23.60;84.50;;;;;;5024687;28;20461;-81
2023/07/01 10:25:33;;;;;;;3.73;1.77;;;23.60;84.70;;;;;;5021323;28;20513;-81
2023/07/01 10:28:07;;;;;;;1.80;1.50;;;23.60;85.00;;;;;;5023763;28;20469;-81
2023/07/01 10:31:14;;;;;;;2.73;1.50;;;23.60;85.10;;;;;;5022808;28;20477;-82
2023/07/01 10:33:56;;;;;;;2.27;1.40;;;23.70;84.80;;;;;;5024887;28;20588;-81
2023/07/01 10:36:23;;;;;;;2.17;1.80;;;23.60;85.70;;;;;;5024137;28;20462;-82
2023/07/01 10:38:50;;;;;;;1.80;1.50;;;23.60;85.70;;;;;;5025414;28;20564;-82
2023/07/01 10:41:53;;;;;;;1.30;1.20;;;23.60;86.20;;;;;;5027647;28;20490;-82
2023/07/01 10:44:24;;;;;;;2.27;1.60;;;23.60;86.50;;;;;;5026455;28;20466;-82
2023/07/01 10:47:15;;;;;;;1.47;1.20;;;23.60;86.80;;;;;;5025868;28;20503;-82
2023/07/01 10:50:10;;;;;;;2.30;1.63;;;23.60;86.40;;;;;;5026698;28;20512;-81
2023/07/01 10:53:02;;;;;;;5.47;2.07;;;23.70;87.00;;;;;;5028641;28;20465;-82
2023/07/01 10:55:36;;;;;;;5.50;2.00;;;23.60;87.10;;;;;;5029760;28;20929;-82
2023/07/01 10:58:17;;;;;;;2.73;1.90;;;23.60;87.20;;;;;;5027753;28;20997;-82
2023/07/01 11:00:44;;;;;;;4.73;1.80;;;23.60;87.40;;;;;;5023710;28;20490;-81
2023/07/01 11:03:50;;;;;;;3.00;1.57;;;23.70;87.50;;;;;;5029053;28;20454;-82
2023/07/01 11:06:18;;;;;;;4.20;1.80;;;23.60;87.50;;;;;;5025700;28;20489;-81
2023/07/01 11:08:47;;;;;;;1.80;1.33;;;23.70;88.10;;;;;;5029883;28;20462;-81
2023/07/01 11:11:20;;;;;;;1.70;1.47;;;23.70;88.50;;;;;;5035289;28;20453;-81
2023/07/01 11:14:01;;;;;;;2.43;1.50;;;23.70;88.90;;;;;;5026935;28;20511;-80
2023/07/01 11:16:29;;;;;;;1.70;1.30;;;23.70;89.30;;;;;;5024592;28;20958;-82
2023/07/01 11:18:58;;;;;;;1.43;1.20;;;23.60;88.90;;;;;;5025925;28;20460;-82
2023/07/01 11:21:27;;;;;;;1.70;1.10;;;23.60;88.90;;;;;;5023887;28;20478;-82
2023/07/01 11:23:55;;;;;;;1.20;1.10;;;23.70;89.50;;;;;;5024915;28;20466;-82
2023/07/01 11:26:24;;;;;;;1.40;1.27;;;23.70;89.30;;;;;;5022645;28;20465;-82
2023/07/01 11:28:51;;;;;;;4.80;1.40;;;23.60;89.60;;;;;;5025873;28;20466;-82
2023/07/01 11:31:20;;;;;;;1.30;1.10;;;23.60;89.60;;;;;;5023108;28;20451;-81
2023/07/01 11:33:49;;;;;;;2.60;1.13;;;23.60;89.80;;;;;;5023891;28;20992;-81
2023/07/01 11:36:18;;;;;;;1.47;1.37;;;23.60;89.90;;;;;;5025370;28;20474;-81
2023/07/01 11:38:48;;;;;;;1.23;0.93;;;23.70;90.00;;;;;;5024599;28;20838;-81
2023/07/01 11:41:16;;;;;;;1.50;1.20;;;23.70;90.10;;;;;;5027177;28;21013;-81
2023/07/01 11:43:43;;;;;;;1.60;1.20;;;23.60;90.00;;;;;;5025730;28;20466;-81
2023/07/01 11:46:12;;;;;;;1.30;1.20;;;23.60;90.00;;;;;;5029731;28;20454;-81
2023/07/01 11:48:40;;;;;;;2.03;1.20;;;23.60;90.20;;;;;;5026676;28;20465;-82
2023/07/01 11:51:07;;;;;;;1.40;1.20;;;23.60;90.20;;;;;;5030732;28;20737;-83
2023/07/01 11:53:36;;;;;;;1.47;1.10;;;23.70;90.40;;;;;;5030906;28;20462;-87
2023/07/01 11:56:05;;;;;;;2.33;1.20;;;23.70;90.80;;;;;;5032464;28;20496;-86
2023/07/01 11:58:34;;;;;;;1.43;1.33;;;23.60;91.10;;;;;;5031402;28;20539;-84
2023/07/01 12:01:01;;;;;;;1.60;1.20;;;23.70;91.30;;;;;;5030563;28;20493;-83
2023/07/01 12:03:33;;;;;;;1.10;0.87;;;23.60;91.40;;;;;;5031833;28;20455;-85
2023/07/01 12:06:00;;;;;;;1.27;1.13;;;23.60;91.70;;;;;;5028375;28;20513;-83
2023/07/01 12:08:48;;;;;;;1.77;1.53;;;23.70;91.90;;;;;;5029484;28;20473;-84
2023/07/01 12:11:28;;;;;;;2.27;1.07;;;23.70;91.90;;;;;;5031726;28;20455;-87
2023/07/01 12:13:55;;;;;;;2.43;0.90;;;23.70;92.00;;;;;;5027724;28;20466;-84
2023/07/01 12:16:22;;;;;;;1.50;1.00;;;23.70;92.20;;;;;;5028731;28;21182;-85
2023/07/01 12:18:48;;;;;;;2.77;0.80;;;23.80;92.40;;;;;;5028032;28;20474;-85
2023/07/01 12:21:15;;;;;;;1.07;0.90;;;23.80;92.60;;;;;;5024372;28;20485;-85
2023/07/01 12:23:43;;;;;;;1.47;1.00;;;23.90;93.30;;;;;;5026897;28;20691;-83
2023/07/01 12:26:10;;;;;;;2.03;1.10;;;23.80;93.20;;;;;;5025495;28;20446;-84
2023/07/01 12:28:39;;;;;;;2.03;1.00;;;23.90;93.70;;;;;;5023172;28;20470;-84
2023/07/01 12:31:07;;;;;;;1.47;1.00;;;23.90;93.60;;;;;;5021692;28;21068;-82
2023/07/01 12:33:34;;;;;;;3.83;0.80;;;23.90;93.40;;;;;;5024237;28;21454;-84
2023/07/01 12:36:01;;;;;;;1.53;1.00;;;23.90;93.30;;;;;;5023851;28;20591;-85
2023/07/01 12:38:29;;;;;;;1.97;0.80;;;24.00;93.30;;;;;;5024607;28;21053;-83
2023/07/01 12:40:56;;;;;;;1.47;1.20;;;24.00;93.20;;;;;;5024899;28;20544;-85
2023/07/01 12:43:27;;;;;;;1.50;0.90;;;24.00;93.00;;;;;;5022446;28;20490;-85
2023/07/01 12:45:57;;;;;;;1.10;0.87;;;24.00;92.80;;;;;;5024816;28;20465;-84
2023/07/01 12:48:23;;;;;;;3.00;0.93;;;24.10;92.80;;;;;;5025345;28;20480;-83
2023/07/01 12:50:53;;;;;;;0.97;0.77;;;24.10;92.80;;;;;;5021598;28;20462;-83
2023/07/01 12:53:20;;;;;;;0.90;0.80;;;24.00;92.50;;;;;;5024777;28;20466;-85
2023/07/01 12:55:50;;;;;;;1.20;1.00;;;24.20;92.60;;;;;;5024070;28;20498;-84